Terminal Aerodrome Forecast
Issued by NWS

Home | Current Version | Previous Version | Text Only | Print | Product List | Glossary On
Versions: 1 2 3 4 5 6 7 8 9 10 11 12 13 14 15 16 17 18 19 20 21 22 23 24
000
FTUS43 KMQT 200523
TAFSAW
TAF
KSAW 200523Z 2006/2106 22008KT P6SM OVC080
     FM200800 22008KT P6SM VCSH OVC070
     FM201100 22007KT 6SM -SN OVC035
     FM201300 22007KT 5SM -SNRA OVC029
     FM201500 24006KT 3SM -SNRA OVC017
     FM202100 35005KT P6SM VCSH OVC009
     FM210000 35008KT P6SM OVC007=

USA.gov is the U.S. government's official web portal to all federal, state and local government web resources and services.